Capitol Logistics 3264


KPBI
Palm Beach International Airport
West Palm Beach, Florida, US
KMIA
Miami International Airport
Miami, Florida, US

Activity Log

Date Flight Route Aircraft Duration
09/14/2019 CPX664 BUFIT2 HILEY HILEY7 SF34 0h 25m
04/04/2019 CPX664 VFR SF34 0h 25m
03/11/2019 CPX664 BUFIT2 HILEY HILEY7 SF34 0h 32m

Route Details

Aircraft Information
Primary: Saab 340AF
Backup: Not Available
Route Data
Distance: 120nm
Sched. Duration: 0h 55m
Avg. Duration: 0h 27m (-28m)
Times Flown: 3
Recm'd Route: BUFIT2 HILEY HILEY7
Planned Altitude: 6,000ft
Origin Wx: KPBI 281153Z 29008KT 10SM FEW060 09/05 A3022 RMK AO2 SLP231 T00890050 10111 20089 53013
Dest. Wx: KMIA 281153Z 31008KT 10SM BKN050 11/04 A3023 RMK AO2 SLP237 T01110039 10128 20106 53013
Notes:

Financial History
Total Freight: 12,835lbs
Average Load: 4,278lbs/flt
Fuel Used: 1,078lbs
Avg. Fuel Used: 359lbs/flt
Fuel Expense: $1,272
Avg. Fuel Expense: $424
Avg. Fuel Cost: $1.18/lbs
Total Gross Income: $14,375
Pilot Pay: $447
Total Expenses: $1,709
Total Revenue: $11,126
Average Revenue: $4,791.73